createdAt,value
2023-05-19T00:01:31.818Z,41.86
2023-05-19T00:04:05.655Z,41.83
2023-05-19T00:06:38.594Z,41.89
2023-05-19T00:09:10.750Z,42.26
2023-05-19T00:11:42.640Z,42.59
2023-05-19T00:14:14.543Z,42.80
2023-05-19T00:16:47.657Z,43.01
2023-05-19T00:19:19.487Z,43.09
2023-05-19T00:21:49.305Z,43.25
2023-05-19T00:24:20.773Z,43.52
2023-05-19T00:26:52.379Z,43.49
2023-05-19T00:29:22.128Z,43.50
2023-05-19T00:31:53.638Z,43.60
2023-05-19T00:34:23.673Z,43.74
2023-05-19T00:36:55.057Z,43.94
2023-05-19T00:39:26.503Z,43.93
2023-05-19T00:41:58.043Z,43.93
2023-05-19T00:44:29.827Z,44.00
2023-05-19T00:47:01.307Z,43.99
2023-05-19T00:49:32.883Z,44.03
2023-05-19T00:52:04.284Z,44.21
2023-05-19T00:54:36.077Z,44.08
2023-05-19T00:57:06.031Z,44.03
2023-05-19T00:59:37.602Z,44.21
2023-05-19T01:02:09.180Z,44.04
2023-05-19T01:04:42.039Z,44.05
2023-05-19T01:07:13.968Z,44.06
2023-05-19T01:09:45.415Z,44.03
2023-05-19T01:12:15.434Z,44.05
2023-05-19T01:14:47.042Z,43.95
2023-05-19T01:17:23.503Z,44.00
2023-05-19T01:20:07.019Z,44.14
2023-05-19T01:22:55.276Z,44.14
2023-05-19T01:26:03.347Z,44.27
2023-05-19T01:29:09.514Z,44.93
2023-05-19T01:31:41.194Z,45.59
2023-05-19T01:34:11.022Z,45.97
2023-05-19T01:36:45.359Z,46.11
2023-05-19T01:39:17.558Z,45.96
2023-05-19T01:41:48.950Z,46.08
2023-05-19T01:44:20.401Z,46.21
2023-05-19T01:46:52.283Z,46.15
2023-05-19T01:49:23.667Z,46.05
2023-05-19T01:51:55.579Z,46.33
2023-05-19T01:54:27.024Z,46.42
2023-05-19T01:57:01.773Z,46.63
2023-05-19T01:59:42.797Z,46.80
2023-05-19T02:02:20.979Z,47.06
2023-05-19T02:04:55.852Z,47.49
2023-05-19T02:07:31.978Z,47.72
2023-05-19T02:10:12.050Z,47.86
2023-05-19T02:12:43.610Z,47.91
2023-05-19T02:15:17.341Z,48.02
2023-05-19T02:17:51.127Z,47.95
2023-05-19T02:20:24.539Z,47.91
2023-05-19T02:22:56.006Z,47.91
2023-05-19T02:25:28.352Z,48.09
2023-05-19T02:28:00.748Z,48.03
2023-05-19T02:30:34.327Z,48.19
2023-05-19T02:33:06.796Z,48.27
2023-05-19T02:35:38.576Z,48.38
2023-05-19T02:38:09.180Z,48.47
2023-05-19T02:40:41.819Z,48.99
2023-05-19T02:43:13.262Z,49.24
2023-05-19T02:45:44.840Z,49.64
2023-05-19T02:48:16.313Z,49.73
2023-05-19T02:50:47.857Z,49.49
2023-05-19T02:53:19.635Z,49.28
2023-05-19T02:55:51.625Z,49.00
2023-05-19T02:58:23.244Z,48.56
2023-05-19T03:00:53.123Z,48.05
2023-05-19T03:03:24.674Z,48.34
2023-05-19T03:05:56.426Z,48.52
2023-05-19T03:08:28.183Z,48.56
2023-05-19T03:10:58.041Z,48.31
2023-05-19T03:13:29.909Z,47.87
2023-05-19T03:16:02.447Z,47.84
2023-05-19T03:18:34.337Z,47.87
2023-05-19T03:21:04.183Z,47.74
2023-05-19T03:23:36.046Z,47.78
2023-05-19T03:26:08.632Z,47.79
2023-05-19T03:28:40.078Z,47.77
2023-05-19T03:31:11.747Z,47.76
2023-05-19T03:33:43.600Z,47.68
2023-05-19T03:36:14.122Z,47.29
2023-05-19T03:38:45.741Z,46.92
2023-05-19T03:41:17.202Z,47.09
2023-05-19T03:43:48.902Z,47.01
2023-05-19T03:46:20.982Z,47.12
2023-05-19T03:49:21.793Z,46.75
2023-05-19T03:52:10.167Z,46.07
2023-05-19T03:55:00.615Z,45.79
2023-05-19T03:57:32.386Z,45.78
2023-05-19T04:00:07.347Z,45.49
2023-05-19T04:02:44.829Z,45.49
2023-05-19T04:05:17.231Z,45.39
2023-05-19T04:07:48.662Z,45.43
2023-05-19T04:10:20.151Z,45.26
2023-05-19T04:12:51.695Z,45.28
2023-05-19T04:15:23.225Z,45.19
2023-05-19T04:17:55.223Z,44.74
2023-05-19T04:20:26.692Z,44.39
2023-05-19T04:22:58.099Z,44.47
2023-05-19T04:25:29.617Z,44.19
2023-05-19T04:28:01.167Z,44.14
2023-05-19T04:30:33.789Z,43.92
2023-05-19T04:33:05.944Z,44.39
2023-05-19T04:35:38.337Z,44.00
2023-05-19T04:38:10.234Z,43.71
2023-05-19T04:40:42.773Z,43.51
2023-05-19T04:43:18.242Z,43.64
2023-05-19T04:45:50.447Z,43.45
2023-05-19T04:48:23.385Z,43.21
2023-05-19T04:50:55.116Z,43.11
2023-05-19T04:53:25.948Z,43.03
2023-05-19T04:55:57.916Z,43.16
2023-05-19T04:58:29.461Z,42.86
2023-05-19T05:01:00.919Z,42.82
2023-05-19T05:03:31.195Z,43.00
2023-05-19T05:06:02.697Z,43.09
2023-05-19T05:08:34.305Z,43.13
2023-05-19T05:11:04.577Z,43.02
2023-05-19T05:13:37.771Z,42.86
2023-05-19T05:16:12.295Z,42.85
2023-05-19T05:18:47.216Z,42.58
2023-05-19T05:21:19.836Z,42.13
2023-05-19T05:23:52.561Z,41.60
2023-05-19T05:26:25.516Z,41.31
2023-05-19T05:28:58.779Z,41.56
2023-05-19T05:31:28.603Z,41.61
2023-05-19T05:34:00.243Z,41.48
2023-05-19T05:36:35.286Z,41.55
2023-05-19T05:39:07.175Z,41.33
2023-05-19T05:41:39.042Z,41.16
2023-05-19T05:44:14.767Z,40.82
2023-05-19T05:46:48.129Z,40.68
2023-05-19T05:49:20.917Z,40.53
2023-05-19T05:52:04.954Z,40.31
2023-05-19T05:54:42.888Z,40.40
2023-05-19T05:57:15.886Z,40.02
2023-05-19T05:59:48.963Z,39.81
2023-05-19T06:02:20.534Z,39.77
2023-05-19T06:04:52.383Z,39.49
2023-05-19T06:07:24.600Z,39.16
2023-05-19T06:09:58.150Z,39.05
2023-05-19T06:12:30.392Z,39.34
2023-05-19T06:15:01.970Z,39.07
2023-05-19T06:17:54.912Z,39.26
2023-05-19T06:20:27.230Z,39.27
2023-05-19T06:22:58.991Z,38.97
2023-05-19T06:25:31.529Z,38.75
2023-05-19T06:28:03.887Z,38.31
2023-05-19T06:30:36.963Z,38.35
2023-05-19T06:33:28.857Z,38.55
2023-05-19T06:36:01.011Z,38.52
2023-05-19T06:38:32.962Z,38.32
2023-05-19T06:41:05.228Z,38.20
2023-05-19T06:43:35.402Z,38.31
2023-05-19T06:46:08.070Z,38.26
2023-05-19T06:48:38.014Z,38.25
2023-05-19T06:51:10.483Z,38.11
2023-05-19T06:53:43.029Z,37.95
2023-05-19T06:56:13.128Z,38.28
2023-05-19T06:58:44.987Z,36.62
2023-05-19T07:01:16.877Z,36.48
2023-05-19T07:03:51.881Z,35.94
2023-05-19T07:06:23.498Z,35.96
2023-05-19T07:08:55.522Z,36.02
2023-05-19T07:11:27.685Z,35.61
2023-05-19T07:13:59.216Z,35.48
2023-05-19T07:16:32.833Z,35.10
2023-05-19T07:19:04.683Z,35.01
2023-05-19T07:21:36.827Z,34.55
2023-05-19T07:24:08.911Z,34.18
2023-05-19T07:26:40.753Z,34.18
2023-05-19T07:29:12.706Z,33.61
2023-05-19T07:31:44.193Z,32.90
2023-05-19T07:34:14.638Z,32.38
2023-05-19T07:36:46.566Z,31.95
2023-05-19T07:39:18.066Z,31.73
2023-05-19T07:41:53.126Z,31.83
2023-05-19T07:44:24.546Z,31.59
2023-05-19T07:46:54.716Z,31.17
2023-05-19T07:49:26.294Z,30.85
2023-05-19T07:51:56.106Z,30.56
2023-05-19T07:54:27.518Z,30.50
2023-05-19T07:56:57.422Z,30.09
2023-05-19T07:59:29.131Z,29.55
2023-05-19T08:02:00.880Z,29.45
2023-05-19T08:04:32.427Z,29.80
2023-05-19T08:07:02.254Z,29.80
2023-05-19T08:09:33.792Z,29.99
2023-05-19T08:12:05.232Z,29.67
2023-05-19T08:14:36.575Z,29.85
2023-05-19T08:17:08.179Z,29.85
2023-05-19T08:19:39.852Z,29.94
2023-05-19T08:22:11.283Z,29.99
2023-05-19T08:24:43.526Z,30.02
2023-05-19T08:27:15.168Z,30.10
2023-05-19T08:29:46.741Z,30.13
2023-05-19T08:32:18.866Z,29.76
2023-05-19T08:34:50.277Z,29.16
2023-05-19T08:37:21.716Z,28.54
2023-05-19T08:39:51.633Z,28.07
2023-05-19T08:42:23.326Z,28.33
2023-05-19T08:44:54.880Z,27.82
2023-05-19T08:47:24.820Z,27.75
2023-05-19T08:49:58.290Z,27.64
2023-05-19T08:52:33.116Z,27.49
2023-05-19T08:55:09.789Z,27.75
2023-05-19T08:57:43.674Z,27.96
2023-05-19T09:00:17.166Z,27.57
2023-05-19T09:02:59.702Z,28.41
2023-05-19T09:05:38.279Z,28.25
2023-05-19T09:08:10.137Z,26.85
2023-05-19T09:10:41.715Z,26.94
2023-05-19T09:13:13.646Z,27.23
2023-05-19T09:15:45.242Z,27.09
2023-05-19T09:18:17.013Z,27.23
2023-05-19T09:20:49.317Z,27.98
2023-05-19T09:23:21.226Z,27.70
2023-05-19T09:25:53.521Z,27.76
2023-05-19T09:28:29.862Z,27.60
2023-05-19T09:31:07.379Z,27.87
2023-05-19T09:33:41.510Z,27.39
2023-05-19T09:36:14.990Z,27.24
2023-05-19T09:38:47.086Z,26.75
2023-05-19T09:41:18.789Z,26.94
2023-05-19T09:43:57.253Z,27.06
2023-05-19T09:46:30.497Z,27.00
2023-05-19T09:49:02.457Z,26.57
2023-05-19T09:51:34.694Z,26.77
2023-05-19T09:54:06.600Z,26.83
2023-05-19T09:56:39.667Z,27.08
2023-05-19T09:59:11.454Z,27.01
2023-05-19T10:01:46.790Z,27.09
2023-05-19T10:04:18.550Z,27.10
2023-05-19T10:06:53.816Z,27.48
2023-05-19T10:09:28.160Z,28.91
2023-05-19T10:12:00.290Z,30.46
2023-05-19T10:14:32.492Z,29.74
2023-05-19T10:17:04.183Z,30.15
2023-05-19T10:19:36.051Z,30.39
2023-05-19T10:22:08.028Z,29.73
2023-05-19T10:24:39.489Z,29.42
2023-05-19T10:27:10.131Z,29.96
2023-05-19T10:29:44.698Z,29.32
2023-05-19T10:32:18.306Z,29.70
2023-05-19T10:35:18.134Z,29.34
2023-05-19T10:37:55.068Z,28.23
2023-05-19T10:40:31.102Z,27.95
2023-05-19T10:43:13.506Z,28.58
2023-05-19T10:45:50.486Z,28.71
2023-05-19T10:48:23.495Z,28.44
2023-05-19T10:50:57.555Z,27.95
2023-05-19T10:53:34.527Z,27.23
2023-05-19T10:56:08.402Z,26.14
2023-05-19T10:58:53.624Z,26.62
2023-05-19T11:01:26.441Z,25.83
2023-05-19T11:03:58.849Z,25.63
2023-05-19T11:06:32.282Z,25.81
2023-05-19T11:09:11.931Z,25.48
2023-05-19T11:11:50.682Z,25.69
2023-05-19T11:14:25.086Z,25.81
2023-05-19T11:16:57.975Z,25.99
2023-05-19T11:19:33.342Z,26.57
2023-05-19T11:22:13.189Z,26.08
2023-05-19T11:24:50.449Z,26.83
2023-05-19T11:27:23.457Z,26.55
2023-05-19T11:29:55.472Z,26.46
2023-05-19T11:32:30.022Z,26.22
2023-05-19T11:35:01.483Z,26.21
2023-05-19T11:37:35.282Z,26.53
2023-05-19T11:40:08.450Z,25.95
2023-05-19T11:42:39.914Z,25.65
2023-05-19T11:45:13.289Z,25.60
2023-05-19T11:48:01.360Z,25.58
2023-05-19T11:50:37.124Z,25.71
2023-05-19T11:53:08.665Z,25.40
2023-05-19T11:55:43.658Z,25.51
2023-05-19T11:58:15.150Z,25.59
2023-05-19T12:00:48.136Z,26.23
2023-05-19T12:03:28.952Z,26.10
2023-05-19T12:06:00.652Z,26.68
2023-05-19T12:08:32.407Z,27.70
2023-05-19T12:11:03.830Z,27.84
2023-05-19T12:13:33.521Z,27.39
2023-05-19T12:16:06.949Z,26.59
2023-05-19T12:18:42.333Z,26.48
2023-05-19T12:21:13.832Z,26.22
2023-05-19T12:23:45.376Z,25.95
2023-05-19T12:26:16.984Z,25.46
2023-05-19T12:28:49.747Z,25.58
2023-05-19T12:31:21.254Z,25.65
2023-05-19T12:33:53.320Z,25.54
2023-05-19T12:36:24.709Z,24.55
2023-05-19T12:38:58.009Z,25.40
2023-05-19T12:41:30.664Z,24.74
2023-05-19T12:44:02.035Z,24.29
2023-05-19T12:46:35.159Z,23.84
2023-05-19T12:49:06.514Z,24.17
2023-05-19T12:51:38.385Z,24.49
2023-05-19T12:54:10.815Z,24.89
2023-05-19T12:56:42.495Z,25.11
2023-05-19T12:59:16.928Z,25.13
2023-05-19T13:01:59.439Z,25.08
2023-05-19T13:04:31.414Z,24.76
2023-05-19T13:07:03.163Z,24.66
2023-05-19T13:09:36.596Z,24.36
2023-05-19T13:12:09.263Z,24.53
2023-05-19T13:14:42.677Z,24.22
2023-05-19T13:17:14.214Z,24.10
2023-05-19T13:19:45.619Z,24.45
2023-05-19T13:22:17.246Z,24.09
2023-05-19T13:24:48.795Z,24.14
2023-05-19T13:27:20.339Z,24.56
2023-05-19T13:29:51.978Z,25.17
2023-05-19T13:32:23.753Z,25.06
2023-05-19T13:34:55.382Z,24.53
2023-05-19T13:37:27.733Z,24.01
2023-05-19T13:39:59.136Z,23.53
2023-05-19T13:42:30.660Z,23.93
2023-05-19T13:45:02.055Z,23.81
2023-05-19T13:47:33.676Z,24.34
2023-05-19T13:50:05.918Z,23.78
2023-05-19T13:52:37.514Z,23.19
2023-05-19T13:55:10.783Z,22.27
2023-05-19T13:57:44.097Z,23.10
2023-05-19T14:00:18.601Z,23.29
2023-05-19T14:02:50.632Z,23.65
2023-05-19T14:05:22.696Z,23.61
2023-05-19T14:07:54.971Z,23.67
2023-05-19T14:10:26.814Z,23.62
2023-05-19T14:15:38.294Z,22.35
2023-05-19T14:18:09.966Z,22.16
2023-05-19T14:20:41.784Z,22.20
2023-05-19T14:23:15.312Z,22.29
2023-05-19T14:25:46.776Z,22.42
2023-05-19T14:28:18.198Z,22.33
2023-05-19T14:30:51.385Z,22.45
2023-05-19T14:33:23.595Z,23.06
2023-05-19T14:35:56.281Z,22.98
2023-05-19T14:38:29.487Z,23.19
2023-05-19T14:41:03.474Z,23.19
2023-05-19T14:43:35.018Z,23.61
2023-05-19T14:46:06.588Z,23.97
2023-05-19T14:48:38.347Z,24.09
2023-05-19T14:51:09.812Z,24.33
2023-05-19T14:53:41.265Z,24.44
2023-05-19T14:56:13.033Z,24.17
2023-05-19T14:58:44.445Z,24.21
2023-05-19T15:01:16.452Z,24.52
2023-05-19T15:03:48.021Z,24.23
2023-05-19T15:06:19.605Z,24.30
2023-05-19T15:08:51.240Z,24.54
2023-05-19T15:11:22.719Z,24.75
2023-05-19T15:13:54.525Z,24.74
2023-05-19T15:16:26.088Z,24.63
2023-05-19T15:18:57.615Z,24.93
2023-05-19T15:21:29.266Z,25.27
2023-05-19T15:24:00.884Z,25.42
2023-05-19T15:26:32.480Z,25.63
2023-05-19T15:29:02.451Z,25.60
2023-05-19T15:31:35.766Z,25.61
2023-05-19T15:34:08.896Z,25.78
2023-05-19T15:36:38.643Z,25.80
2023-05-19T15:39:10.206Z,25.78
2023-05-19T15:41:41.675Z,25.84
2023-05-19T15:44:13.118Z,25.64
2023-05-19T15:46:43.053Z,25.46
2023-05-19T15:49:14.626Z,25.46
2023-05-19T15:51:46.283Z,25.38
2023-05-19T15:54:16.034Z,25.39
2023-05-19T15:56:47.723Z,25.72
2023-05-19T15:59:19.286Z,25.88
2023-05-19T16:01:53.124Z,26.18
2023-05-19T16:04:25.008Z,26.34
2023-05-19T16:06:56.538Z,26.49
2023-05-19T16:09:26.638Z,26.50
2023-05-19T16:11:58.273Z,26.70
2023-05-19T16:14:36.925Z,26.79
2023-05-19T16:17:11.921Z,26.91
2023-05-19T16:19:43.475Z,27.03
2023-05-19T16:22:15.175Z,26.87
2023-05-19T16:24:47.295Z,27.00
2023-05-19T16:27:18.989Z,27.11
2023-05-19T16:29:50.933Z,27.20
2023-05-19T16:32:39.546Z,27.28
2023-05-19T16:35:17.892Z,27.44
2023-05-19T16:38:14.496Z,27.38
2023-05-19T16:41:00.175Z,27.57
2023-05-19T16:44:24.905Z,27.66
2023-05-19T16:47:15.100Z,28.02
2023-05-19T16:50:02.137Z,28.15
2023-05-19T16:52:37.830Z,28.12
2023-05-19T16:55:11.236Z,28.25
2023-05-19T16:57:43.265Z,28.40
2023-05-19T17:00:17.566Z,28.50
2023-05-19T17:02:49.473Z,28.81
2023-05-19T17:05:21.534Z,29.08
2023-05-19T17:07:53.656Z,29.21
2023-05-19T17:10:26.270Z,29.27
2023-05-19T17:12:57.862Z,29.31
2023-05-19T17:15:29.620Z,29.42
2023-05-19T17:17:59.531Z,29.41
2023-05-19T17:20:32.159Z,29.56
2023-05-19T17:23:03.968Z,29.63
2023-05-19T17:25:37.051Z,29.86
2023-05-19T17:28:08.588Z,29.85
2023-05-19T17:30:42.656Z,29.98
2023-05-19T17:33:14.187Z,30.05
2023-05-19T17:35:44.207Z,30.13
2023-05-19T17:38:15.672Z,30.27
2023-05-19T17:40:45.703Z,30.34
2023-05-19T17:43:17.077Z,30.43
2023-05-19T17:45:47.160Z,30.36
2023-05-19T17:48:18.632Z,30.55
2023-05-19T17:50:51.310Z,30.60
2023-05-19T17:53:23.874Z,30.76
2023-05-19T17:56:00.599Z,30.74
2023-05-19T17:58:32.778Z,30.91
2023-05-19T18:01:05.034Z,30.98
2023-05-19T18:03:38.401Z,31.06
2023-05-19T18:06:11.014Z,31.05
2023-05-19T18:08:47.259Z,31.15
2023-05-19T18:11:19.671Z,31.17
2023-05-19T18:13:51.845Z,31.34
2023-05-19T18:16:23.784Z,31.31
2023-05-19T18:18:55.570Z,31.36
2023-05-19T18:21:27.457Z,31.47
2023-05-19T18:24:00.925Z,31.66
2023-05-19T18:26:33.392Z,31.80
2023-05-19T18:29:05.288Z,31.94
2023-05-19T18:31:37.038Z,32.06
2023-05-19T18:34:06.885Z,32.27
2023-05-19T18:36:38.568Z,32.33
2023-05-19T18:39:10.521Z,32.47
2023-05-19T18:41:43.001Z,32.55
2023-05-19T18:44:14.724Z,32.63
2023-05-19T18:46:46.957Z,32.78
2023-05-19T18:49:18.671Z,32.81
2023-05-19T18:51:50.040Z,32.80
2023-05-19T18:54:22.074Z,32.89
2023-05-19T18:56:54.182Z,32.92
2023-05-19T18:59:26.114Z,32.94
2023-05-19T19:01:57.512Z,33.02
2023-05-19T19:04:29.389Z,33.09
2023-05-19T19:07:01.674Z,33.06
2023-05-19T19:09:33.261Z,33.12
2023-05-19T19:12:04.719Z,33.18
2023-05-19T19:14:36.348Z,33.20
2023-05-19T19:17:06.238Z,33.24
2023-05-19T19:19:37.824Z,33.31
2023-05-19T19:22:09.409Z,33.36
2023-05-19T19:24:43.243Z,33.46
2023-05-19T19:27:16.560Z,33.58
2023-05-19T19:29:48.080Z,33.65
2023-05-19T19:32:19.495Z,33.88
2023-05-19T19:34:52.315Z,34.24
2023-05-19T19:37:24.117Z,34.39
2023-05-19T19:39:55.699Z,34.47
2023-05-19T19:42:27.150Z,34.56
2023-05-19T19:44:59.526Z,34.61
2023-05-19T19:47:31.052Z,34.59
2023-05-19T19:50:05.805Z,34.55
2023-05-19T19:52:37.456Z,34.55
2023-05-19T19:55:11.656Z,34.64
2023-05-19T19:57:45.274Z,34.70
2023-05-19T20:00:18.895Z,34.75
2023-05-19T20:03:02.801Z,34.83
2023-05-19T20:05:36.154Z,34.87
2023-05-19T20:08:08.069Z,34.97
2023-05-19T20:10:39.429Z,35.06
2023-05-19T20:13:10.847Z,35.11
2023-05-19T20:15:42.203Z,35.27
2023-05-19T20:18:13.653Z,35.44
2023-05-19T20:20:45.029Z,35.48
2023-05-19T20:23:16.447Z,35.58
2023-05-19T20:26:03.023Z,35.62
2023-05-19T20:28:39.265Z,35.68
2023-05-19T20:31:10.719Z,35.68
2023-05-19T20:33:42.158Z,35.77
2023-05-19T20:36:13.699Z,35.88
2023-05-19T20:38:45.342Z,35.91
2023-05-19T20:41:15.012Z,35.89
2023-05-19T20:43:46.531Z,35.83
2023-05-19T20:46:18.246Z,35.86
2023-05-19T20:48:50.053Z,35.75
2023-05-19T20:51:22.269Z,35.78
2023-05-19T20:53:53.828Z,35.83
2023-05-19T20:56:25.225Z,35.93
2023-05-19T20:58:56.700Z,36.21
2023-05-19T21:01:30.112Z,36.33
2023-05-19T21:04:06.241Z,36.18
2023-05-19T21:06:37.734Z,36.40
2023-05-19T21:09:10.927Z,36.50
2023-05-19T21:11:42.533Z,36.56
2023-05-19T21:14:13.936Z,36.57
2023-05-19T21:16:45.400Z,36.80
2023-05-19T21:19:16.942Z,36.76
2023-05-19T21:21:48.846Z,36.84
2023-05-19T21:24:18.903Z,36.78
2023-05-19T21:26:51.686Z,36.61
2023-05-19T21:29:23.433Z,37.26
2023-05-19T21:31:56.295Z,37.55
2023-05-19T21:34:27.743Z,37.89
2023-05-19T21:36:59.117Z,37.70
2023-05-19T21:39:30.495Z,37.76
2023-05-19T21:42:01.932Z,37.83
2023-05-19T21:44:33.363Z,38.03
2023-05-19T21:47:04.824Z,38.15
2023-05-19T21:49:36.450Z,38.05
2023-05-19T21:52:09.198Z,38.24
2023-05-19T21:54:40.829Z,38.68
2023-05-19T21:57:12.711Z,39.30
2023-05-19T21:59:42.614Z,39.14
2023-05-19T22:02:14.127Z,39.02
2023-05-19T22:04:45.063Z,39.19
2023-05-19T22:07:16.788Z,39.69
2023-05-19T22:09:48.225Z,40.55
2023-05-19T22:12:20.291Z,40.47
2023-05-19T22:14:51.911Z,40.31
2023-05-19T22:17:23.254Z,40.48
2023-05-19T22:19:54.694Z,40.67
2023-05-19T22:22:26.150Z,40.81
2023-05-19T22:24:57.668Z,40.62
2023-05-19T22:27:29.104Z,40.20
2023-05-19T22:30:00.953Z,39.88
2023-05-19T22:32:32.472Z,39.72
2023-05-19T22:35:06.857Z,39.69
2023-05-19T22:37:38.302Z,39.82
2023-05-19T22:40:12.219Z,39.87
2023-05-19T22:42:43.589Z,40.02
2023-05-19T22:45:15.236Z,40.28
2023-05-19T22:47:48.300Z,40.38
2023-05-19T22:50:20.441Z,40.70
2023-05-19T22:52:52.014Z,40.84
2023-05-19T22:55:23.801Z,40.97
2023-05-19T22:57:54.265Z,41.43
2023-05-19T23:00:25.849Z,41.76
2023-05-19T23:02:58.642Z,41.98
2023-05-19T23:05:30.215Z,42.03
2023-05-19T23:08:01.711Z,42.03
2023-05-19T23:10:33.185Z,42.07
2023-05-19T23:13:05.058Z,42.10
2023-05-19T23:15:36.570Z,42.07
2023-05-19T23:18:08.858Z,42.11
2023-05-19T23:20:40.317Z,42.01
2023-05-19T23:23:11.679Z,41.90
2023-05-19T23:25:43.045Z,41.92
2023-05-19T23:28:14.450Z,41.83
2023-05-19T23:30:45.890Z,41.82
2023-05-19T23:33:17.331Z,42.28
2023-05-19T23:35:50.338Z,42.78
2023-05-19T23:38:21.808Z,42.66
2023-05-19T23:40:53.389Z,42.81
2023-05-19T23:43:24.777Z,43.00
2023-05-19T23:45:56.249Z,42.87
2023-05-19T23:48:28.180Z,42.98
2023-05-19T23:50:59.869Z,43.09
2023-05-19T23:53:29.626Z,43.16
2023-05-19T23:56:01.148Z,43.29
2023-05-19T23:58:32.454Z,43.22
